Time;durP1;ratioP1;P1;durP2;ratioP2;P2;SDS_P1;SDS_P2;PMS_P1;PMS_P2;Temp;Humidity;BMP_temperature;BMP_pressure;BME280_temperature;BME280_humidity;BME280_pressure;Samples;Min_cycle;Max_cycle;Signal;HPM_P1;HPM_P2
2023/06/06 00:00:04;;;;;;;2.30;1.70;;;22.20;53.30;;;;;;5071848;28;20498;-62
2023/06/06 00:02:31;;;;;;;;;;;22.10;53.30;;;;;;5072759;28;20041;-62
2023/06/06 00:04:57;;;;;;;2.83;1.60;;;22.10;53.30;;;;;;5072511;28;19920;-62
2023/06/06 00:07:22;;;;;;;3.95;1.88;;;22.10;53.30;;;;;;5071425;28;20514;-62
2023/06/06 00:09:48;;;;;;;3.78;1.70;;;22.10;53.30;;;;;;5071362;28;20044;-62
2023/06/06 00:12:13;;;;;;;3.28;1.70;;;22.10;53.30;;;;;;5071453;28;20043;-61
2023/06/06 00:14:40;;;;;;;2.20;1.60;;;22.10;53.30;;;;;;5072657;28;20515;-62
2023/06/06 00:17:06;;;;;;;3.03;1.90;;;22.10;53.40;;;;;;5070771;28;20079;-62
2023/06/06 00:19:32;;;;;;;2.33;1.58;;;22.10;53.40;;;;;;5071682;28;20045;-62
2023/06/06 00:21:58;;;;;;;3.30;1.80;;;22.10;53.40;;;;;;5071048;28;20052;-62
2023/06/06 00:24:24;;;;;;;3.13;1.60;;;22.00;53.30;;;;;;5071972;28;20095;-62
2023/06/06 00:26:50;;;;;;;2.42;1.70;;;22.10;53.40;;;;;;5071312;28;20539;-62
2023/06/06 00:29:16;;;;;;;2.60;1.70;;;22.10;53.40;;;;;;5070533;28;20068;-62
2023/06/06 00:31:41;;;;;;;3.38;1.70;;;22.00;53.40;;;;;;5072397;28;20049;-62
2023/06/06 00:34:07;;;;;;;3.20;1.38;;;22.00;53.40;;;;;;5069782;28;20143;-62
2023/06/06 00:36:32;;;;;;;2.90;1.73;;;22.00;53.40;;;;;;5072308;28;20469;-62
2023/06/06 00:38:58;;;;;;;3.38;1.67;;;22.00;53.40;;;;;;5072188;28;20051;-63
2023/06/06 00:41:23;;;;;;;2.75;1.48;;;22.00;53.40;;;;;;5071237;28;20040;-63
2023/06/06 00:43:49;;;;;;;5.03;1.50;;;22.00;53.50;;;;;;5076026;28;20036;-62
2023/06/06 00:46:14;;;;;;;2.85;1.80;;;22.00;53.40;;;;;;5075719;28;20047;-62
2023/06/06 00:48:40;;;;;;;2.95;1.58;;;22.00;53.40;;;;;;5073743;28;20370;-62
2023/06/06 00:51:08;;;;;;;3.13;1.90;;;22.00;53.40;;;;;;5075465;28;20072;-62
2023/06/06 00:53:33;;;;;;;1.90;1.35;;;22.00;53.40;;;;;;5073564;28;20044;-62
2023/06/06 00:55:59;;;;;;;2.53;1.67;;;22.00;53.50;;;;;;5074880;28;20040;-62
2023/06/06 00:58:26;;;;;;;2.15;1.50;;;22.00;53.50;;;;;;5075350;28;20610;-62
2023/06/06 01:00:52;;;;;;;2.63;1.73;;;22.00;53.50;;;;;;5075778;28;20119;-62
2023/06/06 01:03:20;;;;;;;2.38;1.58;;;22.00;53.50;;;;;;5074445;28;20137;-62
2023/06/06 01:05:46;;;;;;;2.50;1.48;;;22.00;53.50;;;;;;5075506;28;20442;-62
2023/06/06 01:08:14;;;;;;;1.98;1.38;;;21.90;53.40;;;;;;5075010;28;20040;-62
2023/06/06 01:10:40;;;;;;;3.38;1.77;;;22.00;53.50;;;;;;5074886;28;20051;-62
2023/06/06 01:13:11;;;;;;;3.42;1.70;;;21.90;53.40;;;;;;5075191;28;20033;-62
2023/06/06 01:15:58;;;;;;;3.50;1.70;;;21.90;53.40;;;;;;5074699;28;20037;-62
2023/06/06 01:18:23;;;;;;;2.40;1.60;;;21.90;53.50;;;;;;5073780;28;20111;-62
2023/06/06 01:20:49;;;;;;;2.42;1.50;;;21.90;53.50;;;;;;5075090;28;20124;-62
2023/06/06 01:23:15;;;;;;;3.15;1.50;;;21.90;53.50;;;;;;5073179;28;20086;-62
2023/06/06 01:25:44;;;;;;;2.92;1.50;;;21.90;53.50;;;;;;5057449;28;20492;-62
2023/06/06 01:28:13;;;;;;;2.05;1.40;;;21.90;53.50;;;;;;5074711;28;20503;-63
2023/06/06 01:30:39;;;;;;;3.67;1.65;;;21.90;53.50;;;;;;5074361;28;20106;-62
2023/06/06 01:33:11;;;;;;;2.50;1.50;;;21.90;53.50;;;;;;5073871;28;20040;-62
2023/06/06 01:35:47;;;;;;;3.42;1.50;;;21.90;53.50;;;;;;5075057;28;20051;-62
2023/06/06 01:38:20;;;;;;;2.75;1.80;;;21.90;53.60;;;;;;5056051;28;20082;-62
2023/06/06 01:40:46;;;;;;;3.97;1.73;;;21.90;53.50;;;;;;5073870;28;20036;-62
2023/06/06 01:43:12;;;;;;;2.63;1.67;;;21.90;53.50;;;;;;5073304;28;20559;-62
2023/06/06 01:45:38;;;;;;;3.08;1.38;;;21.90;53.50;;;;;;5073950;28;20120;-62
2023/06/06 01:48:04;;;;;;;2.95;1.63;;;21.90;53.50;;;;;;5056319;28;20396;-62
2023/06/06 01:50:31;;;;;;;2.25;1.55;;;21.80;53.50;;;;;;5073160;28;20492;-62
2023/06/06 01:52:57;;;;;;;3.60;1.50;;;21.80;53.50;;;;;;5072696;28;20040;-62
2023/06/06 01:55:22;;;;;;;2.25;1.52;;;21.80;53.50;;;;;;5073788;28;20044;-62
2023/06/06 01:57:48;;;;;;;2.30;1.42;;;21.80;53.50;;;;;;5073758;28;20090;-62
2023/06/06 02:00:15;;;;;;;2.97;1.48;;;21.80;53.50;;;;;;5072872;28;20048;-62
2023/06/06 02:02:41;;;;;;;3.78;1.73;;;21.80;53.60;;;;;;5074221;28;20090;-62
2023/06/06 02:05:07;;;;;;;3.03;1.52;;;21.80;53.60;;;;;;5072902;28;20049;-62
2023/06/06 02:07:34;;;;;;;2.30;1.63;;;21.80;53.60;;;;;;5072904;28;20377;-62
2023/06/06 02:10:01;;;;;;;3.43;1.37;;;21.80;53.50;;;;;;5074270;28;20511;-63
2023/06/06 02:12:26;;;;;;;2.38;1.33;;;21.80;53.60;;;;;;5073347;28;20041;-62
2023/06/06 02:14:54;;;;;;;3.00;1.67;;;21.70;53.60;;;;;;5072826;28;20059;-62
2023/06/06 02:17:20;;;;;;;2.23;1.40;;;21.80;53.60;;;;;;5074033;28;20133;-62
2023/06/06 02:19:46;;;;;;;2.67;1.85;;;21.80;53.60;;;;;;5073119;28;20087;-62
2023/06/06 02:22:12;;;;;;;2.85;1.55;;;21.80;53.60;;;;;;5073890;28;20045;-61
2023/06/06 02:24:37;;;;;;;2.30;1.40;;;21.80;53.60;;;;;;5074100;28;20044;-62
2023/06/06 02:27:03;;;;;;;2.35;1.55;;;21.80;53.60;;;;;;5073131;28;20056;-62
2023/06/06 02:29:29;;;;;;;3.05;1.42;;;21.70;53.60;;;;;;5073456;28;20045;-62
2023/06/06 02:31:56;;;;;;;3.25;1.60;;;21.80;53.60;;;;;;5073949;28;20101;-62
2023/06/06 02:34:24;;;;;;;2.00;1.35;;;21.70;53.60;;;;;;5072801;28;20040;-62
2023/06/06 02:36:51;;;;;;;3.00;1.60;;;21.70;53.60;;;;;;5073771;28;20090;-62
2023/06/06 02:39:16;;;;;;;2.88;1.60;;;21.70;53.70;;;;;;5073653;28;20044;-62
2023/06/06 02:41:42;;;;;;;3.30;1.95;;;21.70;53.60;;;;;;5072849;28;20439;-62
2023/06/06 02:44:07;;;;;;;3.03;1.63;;;21.70;53.60;;;;;;5073091;28;20048;-61
2023/06/06 02:46:33;;;;;;;2.78;1.70;;;21.70;53.70;;;;;;5073435;28;20037;-62
2023/06/06 02:48:59;;;;;;;2.47;1.90;;;21.70;53.60;;;;;;5072513;28;20098;-62
2023/06/06 02:51:25;;;;;;;3.35;1.90;;;21.70;53.70;;;;;;5072116;28;20123;-62
2023/06/06 02:53:50;;;;;;;2.88;1.60;;;21.70;53.70;;;;;;5073417;28;20087;-62
2023/06/06 02:56:16;;;;;;;2.53;1.58;;;21.70;53.70;;;;;;5072272;28;20075;-62
2023/06/06 02:58:42;;;;;;;3.00;1.77;;;21.70;53.70;;;;;;5073487;28;20070;-62
2023/06/06 03:01:09;;;;;;;3.75;1.70;;;21.70;53.70;;;;;;5072379;28;20079;-62
2023/06/06 03:03:35;;;;;;;2.33;1.50;;;21.70;53.70;;;;;;5073144;28;20048;-62
2023/06/06 03:06:00;;;;;;;3.95;1.70;;;21.70;53.70;;;;;;5071125;28;20132;-61
2023/06/06 03:08:26;;;;;;;2.60;1.58;;;21.60;53.60;;;;;;5072062;28;20044;-62
2023/06/06 03:10:52;;;;;;;2.85;1.50;;;21.60;53.70;;;;;;5073247;28;20548;-62
2023/06/06 03:13:17;;;;;;;2.38;1.23;;;21.60;53.70;;;;;;5071650;28;20135;-62
2023/06/06 03:15:46;;;;;;;2.50;1.70;;;21.60;53.70;;;;;;5072270;28;20089;-62
2023/06/06 03:18:17;;;;;;;4.15;1.48;;;21.60;53.70;;;;;;5072850;28;20067;-62
2023/06/06 03:20:53;;;;;;;2.55;1.30;;;21.60;53.70;;;;;;5073273;28;20461;-62
2023/06/06 03:23:19;;;;;;;1.90;1.50;;;21.60;53.70;;;;;;5070805;28;20059;-62
2023/06/06 03:25:44;;;;;;;2.85;1.45;;;21.60;53.80;;;;;;5072724;28;20040;-61
2023/06/06 03:28:11;;;;;;;2.67;1.40;;;21.60;53.70;;;;;;5072402;28;20048;-62
2023/06/06 03:30:37;;;;;;;3.30;1.45;;;21.60;53.80;;;;;;5072334;28;20123;-62
2023/06/06 03:33:05;;;;;;;2.60;1.75;;;21.60;53.70;;;;;;5072822;28;20167;-62
2023/06/06 03:35:34;;;;;;;2.42;1.40;;;21.60;53.70;;;;;;5072706;28;20476;-62
2023/06/06 03:38:00;;;;;;;2.78;1.73;;;21.60;53.80;;;;;;5072300;28;20581;-62
2023/06/06 03:40:26;;;;;;;3.22;1.52;;;21.60;53.70;;;;;;5071304;28;20488;-62
2023/06/06 03:42:52;;;;;;;3.60;1.48;;;21.60;53.80;;;;;;5072978;28;20048;-62
2023/06/06 03:45:18;;;;;;;2.92;1.70;;;21.60;53.70;;;;;;5071784;28;20258;-62
2023/06/06 03:47:44;;;;;;;3.80;1.40;;;21.60;53.80;;;;;;5072753;28;20097;-62
2023/06/06 03:50:10;;;;;;;3.03;1.67;;;21.50;53.70;;;;;;5072491;28;20054;-62
2023/06/06 03:52:36;;;;;;;3.55;1.58;;;21.50;53.70;;;;;;5072312;28;20044;-62
2023/06/06 03:55:02;;;;;;;3.55;1.60;;;21.50;53.80;;;;;;5072721;28;20047;-62
2023/06/06 03:57:28;;;;;;;2.60;1.30;;;21.50;53.70;;;;;;5071833;28;20040;-62
2023/06/06 03:59:54;;;;;;;2.88;1.63;;;21.50;53.80;;;;;;5072730;28;20048;-62
2023/06/06 04:02:20;;;;;;;4.43;1.80;;;21.50;53.80;;;;;;5065000;28;20041;-61
2023/06/06 04:04:50;;;;;;;3.92;1.45;;;21.50;53.80;;;;;;5067705;28;20052;-62
2023/06/06 04:07:16;;;;;;;2.47;1.38;;;21.50;53.80;;;;;;5071478;28;20037;-62
2023/06/06 04:09:42;;;;;;;2.67;1.48;;;21.50;53.80;;;;;;5072384;28;20446;-62
2023/06/06 04:12:08;;;;;;;4.82;1.83;;;21.50;53.80;;;;;;5071354;28;20076;-62
2023/06/06 04:14:34;;;;;;;2.28;1.67;;;21.50;53.80;;;;;;5072383;28;20097;-62
2023/06/06 04:17:01;;;;;;;2.63;1.38;;;21.50;53.80;;;;;;5073540;28;20044;-62
2023/06/06 04:19:27;;;;;;;3.13;1.35;;;21.50;53.80;;;;;;5075156;28;20045;-62
2023/06/06 04:21:54;;;;;;;1.88;1.30;;;21.50;53.80;;;;;;5075258;28;20051;-62
2023/06/06 04:24:20;;;;;;;2.30;1.50;;;21.50;53.80;;;;;;5075851;28;20040;-62
2023/06/06 04:26:46;;;;;;;3.53;1.60;;;21.50;53.80;;;;;;5074317;28;20504;-62
2023/06/06 04:29:13;;;;;;;3.05;1.40;;;21.50;53.80;;;;;;5076034;28;20051;-62
2023/06/06 04:31:40;;;;;;;2.42;1.38;;;21.50;53.80;;;;;;5076343;28;20040;-63
2023/06/06 04:34:09;;;;;;;2.38;1.70;;;21.50;53.90;;;;;;5073823;28;20052;-62
2023/06/06 04:36:38;;;;;;;1.73;1.25;;;21.50;53.80;;;;;;5074559;28;20396;-62
2023/06/06 04:39:07;;;;;;;2.67;1.50;;;21.50;53.80;;;;;;5075961;28;20507;-62
2023/06/06 04:41:33;;;;;;;2.55;1.48;;;21.60;53.90;;;;;;5075347;28;20045;-62
2023/06/06 04:43:59;;;;;;;2.70;1.40;;;21.50;53.80;;;;;;5076145;28;20047;-62
2023/06/06 04:46:24;;;;;;;3.38;1.52;;;21.60;53.90;;;;;;5075691;28;20421;-62
2023/06/06 04:48:56;;;;;;;2.67;1.50;;;21.60;53.90;;;;;;5075088;28;20036;-62
2023/06/06 04:51:29;;;;;;;3.22;1.50;;;21.60;53.90;;;;;;5075214;28;20055;-62
2023/06/06 04:54:03;;;;;;;2.25;1.38;;;21.60;53.90;;;;;;5073920;28;20464;-62
2023/06/06 04:56:29;;;;;;;2.53;1.35;;;21.60;53.90;;;;;;5074384;28;20087;-62
2023/06/06 04:58:56;;;;;;;2.45;1.33;;;21.60;53.80;;;;;;5075815;28;20072;-62
2023/06/06 05:01:23;;;;;;;3.10;1.58;;;21.60;53.80;;;;;;5074452;28;20106;-63
2023/06/06 05:03:48;;;;;;;2.63;1.50;;;21.60;53.80;;;;;;5075253;28;20492;-62
2023/06/06 05:06:14;;;;;;;2.65;1.40;;;21.60;53.80;;;;;;5074122;28;20048;-62
2023/06/06 05:08:41;;;;;;;4.88;1.80;;;21.60;53.80;;;;;;5074817;28;20123;-63
2023/06/06 05:11:07;;;;;;;1.73;1.30;;;21.60;53.70;;;;;;5075219;28;20033;-62
2023/06/06 05:13:34;;;;;;;2.70;1.50;;;21.60;53.70;;;;;;5075442;28;20507;-62
2023/06/06 05:16:00;;;;;;;3.17;1.77;;;21.70;53.80;;;;;;5074599;28;20162;-62
2023/06/06 05:18:25;;;;;;;2.08;1.58;;;21.70;53.80;;;;;;5074783;28;20049;-62
2023/06/06 05:20:51;;;;;;;2.35;1.60;;;21.60;53.70;;;;;;5075449;28;20043;-62
2023/06/06 05:23:16;;;;;;;2.42;1.50;;;21.70;53.70;;;;;;5074293;28;20472;-62
2023/06/06 05:25:42;;;;;;;2.75;1.50;;;21.70;53.70;;;;;;5075274;28;20047;-62
2023/06/06 05:28:11;;;;;;;3.85;1.88;;;21.70;53.70;;;;;;5054076;28;20448;-62
2023/06/06 05:30:36;;;;;;;3.63;1.98;;;21.70;53.70;;;;;;5054245;28;20041;-62
2023/06/06 05:33:03;;;;;;;3.03;1.48;;;21.70;53.70;;;;;;5054782;28;20044;-62
2023/06/06 05:35:28;;;;;;;2.45;1.40;;;21.70;53.70;;;;;;5054480;28;20064;-62
2023/06/06 05:37:54;;;;;;;2.65;1.58;;;21.70;53.70;;;;;;5054277;28;20505;-62
2023/06/06 05:40:19;;;;;;;3.40;1.70;;;21.70;53.70;;;;;;5054649;28;20459;-62
2023/06/06 05:42:45;;;;;;;2.20;1.17;;;21.80;54.50;;;;;;5054298;28;20041;-62
2023/06/06 05:45:10;;;;;;;2.38;1.63;;;21.80;53.70;;;;;;5054261;28;20052;-62
2023/06/06 05:47:36;;;;;;;3.10;1.52;;;21.80;53.70;;;;;;5054635;28;20526;-62
2023/06/06 05:50:02;;;;;;;3.80;1.95;;;21.80;53.70;;;;;;5053913;28;20068;-63
2023/06/06 05:52:28;;;;;;;2.50;1.40;;;21.80;53.70;;;;;;5053106;28;20037;-63
2023/06/06 05:55:02;;;;;;;3.08;1.60;;;21.80;53.70;;;;;;5054901;28;20056;-63
2023/06/06 05:57:27;;;;;;;2.80;1.70;;;21.80;53.70;;;;;;5053460;28;20041;-63
2023/06/06 05:59:53;;;;;;;3.13;1.65;;;21.80;53.70;;;;;;5054570;28;20044;-62
2023/06/06 06:02:20;;;;;;;3.35;1.75;;;21.80;53.70;;;;;;5053817;28;20056;-62
2023/06/06 06:04:45;;;;;;;2.90;1.55;;;21.80;53.70;;;;;;5053377;28;20080;-62
2023/06/06 06:07:12;;;;;;;4.05;1.60;;;21.80;53.60;;;;;;5053857;28;20145;-62
2023/06/06 06:09:37;;;;;;;3.10;1.65;;;21.80;53.60;;;;;;5054055;28;20168;-62
2023/06/06 06:12:05;;;;;;;2.00;1.30;;;21.80;53.70;;;;;;5053402;28;20127;-62
2023/06/06 06:14:31;;;;;;;3.28;1.90;;;21.80;53.70;;;;;;5054266;28;20481;-62
2023/06/06 06:16:56;;;;;;;3.08;1.83;;;21.80;53.70;;;;;;5054263;28;20051;-62
2023/06/06 06:19:22;;;;;;;3.47;1.40;;;21.80;53.70;;;;;;5051588;28;20044;-62
2023/06/06 06:21:48;;;;;;;3.55;1.50;;;21.80;53.70;;;;;;5054235;28;20132;-62
2023/06/06 06:24:13;;;;;;;2.88;1.42;;;21.80;53.70;;;;;;5053761;28;20047;-62
2023/06/06 06:26:39;;;;;;;3.03;1.65;;;21.90;53.80;;;;;;5060748;28;20119;-62
2023/06/06 06:29:05;;;;;;;3.75;1.50;;;21.80;53.70;;;;;;5072282;28;20506;-62
2023/06/06 06:31:30;;;;;;;3.88;1.63;;;21.80;53.70;;;;;;5073564;28;20053;-63
2023/06/06 06:33:56;;;;;;;2.58;1.67;;;21.90;53.80;;;;;;5072932;28;20118;-62
2023/06/06 06:36:22;;;;;;;5.45;1.83;;;21.90;53.80;;;;;;5073654;28;20082;-62
2023/06/06 06:38:48;;;;;;;3.70;1.60;;;21.90;53.80;;;;;;5073977;28;20044;-62
2023/06/06 06:41:13;;;;;;;2.53;1.50;;;21.90;53.80;;;;;;5072402;28;20498;-62
2023/06/06 06:43:39;;;;;;;2.95;1.50;;;21.80;53.70;;;;;;5073534;28;20062;-62
2023/06/06 06:46:05;;;;;;;2.67;1.63;;;21.80;53.70;;;;;;5073033;28;20086;-62
2023/06/06 06:48:31;;;;;;;4.65;1.63;;;21.90;53.80;;;;;;5073498;28;20044;-62
2023/06/06 06:50:56;;;;;;;3.47;1.50;;;21.90;53.70;;;;;;5073705;28;20040;-62
2023/06/06 06:53:25;;;;;;;3.95;1.90;;;21.90;53.80;;;;;;5072638;28;20155;-62
2023/06/06 06:55:51;;;;;;;3.63;1.52;;;21.90;53.80;;;;;;5073537;28;20090;-62
2023/06/06 06:58:25;;;;;;;2.88;1.63;;;21.90;53.80;;;;;;5073186;28;20056;-62
2023/06/06 07:00:52;;;;;;;4.25;1.63;;;21.90;53.80;;;;;;5072819;28;20048;-62
2023/06/06 07:03:17;;;;;;;3.85;1.73;;;21.90;53.80;;;;;;5071669;28;20049;-62
2023/06/06 07:05:43;;;;;;;3.95;1.85;;;21.90;53.80;;;;;;5073188;28;20051;-62
2023/06/06 07:08:08;;;;;;;3.67;1.63;;;21.90;53.80;;;;;;5072292;28;20049;-62
2023/06/06 07:10:34;;;;;;;3.45;1.60;;;21.90;53.70;;;;;;5073387;28;20133;-62
2023/06/06 07:13:00;;;;;;;2.80;1.70;;;21.90;53.70;;;;;;5071624;28;20036;-62
2023/06/06 07:15:25;;;;;;;4.35;1.73;;;21.90;53.70;;;;;;5071000;28;20055;-62
2023/06/06 07:17:51;;;;;;;3.50;1.88;;;21.90;53.70;;;;;;5072893;28;20507;-62
2023/06/06 07:20:21;;;;;;;3.28;1.98;;;22.00;53.70;;;;;;5072818;28;20032;-62
2023/06/06 07:22:47;;;;;;;3.70;1.88;;;22.00;53.70;;;;;;5072225;28;20050;-62
2023/06/06 07:25:13;;;;;;;2.67;1.80;;;22.00;53.70;;;;;;5071282;28;20041;-62
2023/06/06 07:27:39;;;;;;;3.10;1.98;;;22.00;53.70;;;;;;5072727;28;20084;-62
2023/06/06 07:30:17;;;;;;;3.15;1.50;;;22.00;53.70;;;;;;5072332;28;20080;-62
2023/06/06 07:32:43;;;;;;;;;;;22.00;53.70;;;;;;5073594;28;20036;-62
2023/06/06 07:35:10;;;;;;;4.43;2.00;;;22.00;53.70;;;;;;5072346;28;19968;-62
2023/06/06 07:37:39;;;;;;;3.70;1.80;;;22.00;53.70;;;;;;5072018;28;20041;-62
2023/06/06 07:40:05;;;;;;;2.80;1.63;;;22.00;53.70;;;;;;5072626;28;20135;-62
2023/06/06 07:42:35;;;;;;;3.88;2.00;;;22.00;53.70;;;;;;5072060;28;20056;-62
2023/06/06 07:45:01;;;;;;;4.13;1.70;;;22.10;53.80;;;;;;5072938;28;20119;-62
2023/06/06 07:47:27;;;;;;;2.80;1.80;;;22.10;53.80;;;;;;5072337;28;20059;-62
2023/06/06 07:49:52;;;;;;;4.60;1.95;;;22.10;53.70;;;;;;5071680;28;20036;-62
2023/06/06 07:52:18;;;;;;;3.92;1.90;;;22.10;53.70;;;;;;5071778;28;20048;-62
2023/06/06 07:54:44;;;;;;;4.07;1.90;;;22.10;53.80;;;;;;5072389;28;20048;-62
2023/06/06 07:57:10;;;;;;;4.15;1.80;;;22.10;53.70;;;;;;5071509;28;20044;-62
2023/06/06 07:59:36;;;;;;;5.45;2.15;;;22.20;53.80;;;;;;5072748;28;20469;-62
2023/06/06 08:02:01;;;;;;;4.95;1.83;;;22.20;53.80;;;;;;5072690;28;20045;-62
2023/06/06 08:04:27;;;;;;;4.88;2.10;;;22.20;53.80;;;;;;5071315;28;20119;-62
2023/06/06 08:06:53;;;;;;;4.18;2.15;;;22.20;53.80;;;;;;5072417;28;20044;-62
2023/06/06 08:09:19;;;;;;;3.05;1.83;;;22.20;53.80;;;;;;5072046;28;20052;-62
2023/06/06 08:11:45;;;;;;;3.10;1.90;;;22.20;53.80;;;;;;5071788;28;20052;-62
2023/06/06 08:14:10;;;;;;;3.15;1.75;;;22.20;53.70;;;;;;5072166;28;20047;-62
2023/06/06 08:16:37;;;;;;;3.22;1.80;;;22.20;53.80;;;;;;5072550;28;20068;-62
2023/06/06 08:19:03;;;;;;;3.35;1.88;;;22.20;53.70;;;;;;5071507;28;20045;-62
2023/06/06 08:21:29;;;;;;;4.88;1.77;;;22.30;53.80;;;;;;5070710;28;20485;-62
2023/06/06 08:23:55;;;;;;;2.95;1.73;;;22.20;53.70;;;;;;5072150;28;20044;-62
2023/06/06 08:26:25;;;;;;;3.58;1.60;;;22.30;53.70;;;;;;5071273;28;20131;-62
2023/06/06 08:28:53;;;;;;;4.13;1.70;;;22.30;53.80;;;;;;5072490;28;20057;-62
2023/06/06 08:31:19;;;;;;;3.13;2.00;;;22.30;53.70;;;;;;5071893;28;20040;-62
2023/06/06 08:33:45;;;;;;;5.05;1.88;;;22.30;53.80;;;;;;5070090;28;20110;-62
2023/06/06 08:36:11;;;;;;;3.50;1.40;;;22.30;53.70;;;;;;5071846;28;20049;-62
2023/06/06 08:38:38;;;;;;;3.95;1.90;;;22.30;53.70;;;;;;5071328;28;20045;-62
2023/06/06 08:41:03;;;;;;;3.25;1.70;;;22.30;53.70;;;;;;5072267;28;20131;-62
2023/06/06 08:43:29;;;;;;;2.88;1.42;;;22.30;53.60;;;;;;5054131;28;20123;-62
2023/06/06 08:45:57;;;;;;;4.07;1.60;;;22.30;53.60;;;;;;5053491;28;20745;-62
2023/06/06 08:48:28;;;;;;;3.72;1.75;;;22.30;53.60;;;;;;5070435;28;20041;-62
2023/06/06 08:50:54;;;;;;;3.72;1.80;;;22.30;53.60;;;;;;5071818;28;20080;-62
2023/06/06 08:53:19;;;;;;;2.92;1.80;;;22.40;53.60;;;;;;5071183;28;20139;-62
2023/06/06 08:55:45;;;;;;;3.42;1.50;;;22.40;53.60;;;;;;5070996;28;20123;-62
2023/06/06 08:58:11;;;;;;;3.45;1.60;;;22.40;53.60;;;;;;5070765;28;20045;-62
2023/06/06 09:00:37;;;;;;;3.47;1.63;;;22.40;53.60;;;;;;5053411;28;20559;-62
2023/06/06 09:03:03;;;;;;;3.17;1.90;;;22.40;53.60;;;;;;5071927;28;20120;-62
2023/06/06 09:05:29;;;;;;;2.70;1.85;;;22.40;53.60;;;;;;5040099;28;20127;-62
2023/06/06 09:07:55;;;;;;;3.08;1.80;;;22.40;53.60;;;;;;5073528;28;20123;-62
2023/06/06 09:10:21;;;;;;;3.55;1.80;;;22.50;53.60;;;;;;5057177;28;20040;-62
2023/06/06 09:12:47;;;;;;;4.15;1.83;;;22.50;53.60;;;;;;5075531;28;20043;-62
2023/06/06 09:15:12;;;;;;;2.65;1.75;;;22.50;53.60;;;;;;5074373;28;20094;-62
2023/06/06 09:17:39;;;;;;;4.65;1.80;;;22.50;53.60;;;;;;5075293;28;20505;-62
2023/06/06 09:20:08;;;;;;;4.72;2.20;;;22.50;54.30;;;;;;5075248;28;20472;-62
2023/06/06 09:22:46;;;;;;;3.03;1.63;;;22.50;53.60;;;;;;5074660;28;20041;-62
2023/06/06 09:25:22;;;;;;;3.17;1.83;;;22.50;53.60;;;;;;5075143;28;20041;-62
2023/06/06 09:27:52;;;;;;;4.32;1.85;;;22.50;53.60;;;;;;5074616;28;20415;-62
2023/06/06 09:30:19;;;;;;;3.00;1.50;;;22.50;53.60;;;;;;5074637;28;20044;-62
2023/06/06 09:32:46;;;;;;;3.65;1.83;;;22.50;53.60;;;;;;5075110;28;20094;-62
2023/06/06 09:35:14;;;;;;;4.38;1.90;;;22.50;53.50;;;;;;5072579;28;20076;-62
2023/06/06 09:37:40;;;;;;;4.28;2.20;;;22.50;53.50;;;;;;5075154;28;20060;-62
2023/06/06 09:40:15;;;;;;;3.08;1.80;;;22.50;53.50;;;;;;5074948;28;20040;-62
2023/06/06 09:42:45;;;;;;;4.10;2.17;;;22.60;53.60;;;;;;5074251;28;20082;-62
2023/06/06 09:45:15;;;;;;;3.92;2.00;;;22.60;53.60;;;;;;5074283;28;20474;-62
2023/06/06 09:47:44;;;;;;;3.70;1.70;;;22.50;53.50;;;;;;5074661;28;20487;-62
2023/06/06 09:50:10;;;;;;;4.43;1.90;;;22.60;53.60;;;;;;5073378;28;20048;-62
2023/06/06 09:52:36;;;;;;;3.63;1.65;;;22.50;53.50;;;;;;5074630;28;20044;-62
2023/06/06 09:55:06;;;;;;;3.65;1.70;;;22.60;53.60;;;;;;5074824;28;20127;-62
2023/06/06 09:57:36;;;;;;;3.08;1.60;;;22.60;53.60;;;;;;5072635;28;20469;-62
2023/06/06 10:00:10;;;;;;;2.67;1.50;;;22.60;53.60;;;;;;5074764;28;20115;-62
2023/06/06 10:02:46;;;;;;;3.03;1.63;;;22.60;53.60;;;;;;5074700;28;20037;-62
2023/06/06 10:05:12;;;;;;;3.90;1.50;;;22.60;53.60;;;;;;5073110;28;20519;-62
2023/06/06 10:07:44;;;;;;;3.33;1.73;;;22.60;53.60;;;;;;5074269;28;20377;-62
2023/06/06 10:10:13;;;;;;;3.22;1.90;;;22.60;53.60;;;;;;5073141;28;20048;-62
2023/06/06 10:12:40;;;;;;;4.22;2.28;;;22.60;53.60;;;;;;5074368;28;20052;-62
2023/06/06 10:15:11;;;;;;;2.65;1.50;;;22.60;53.60;;;;;;5072742;28;20098;-63
2023/06/06 10:17:39;;;;;;;3.83;1.70;;;22.60;53.60;;;;;;5073469;28;20063;-62
2023/06/06 10:20:06;;;;;;;3.40;1.83;;;22.60;53.70;;;;;;5074249;28;20045;-62
2023/06/06 10:22:35;;;;;;;4.85;1.90;;;22.60;53.70;;;;;;5073933;28;20094;-62
2023/06/06 10:25:08;;;;;;;3.80;1.85;;;22.60;53.60;;;;;;5071885;28;20045;-62
2023/06/06 10:28:13;;;;;;;3.20;1.73;;;22.60;53.70;;;;;;5073902;28;20052;-62
2023/06/06 10:30:42;;;;;;;4.05;1.98;;;22.60;53.60;;;;;;5074102;28;20056;-62
2023/06/06 10:33:13;;;;;;;3.83;1.75;;;22.60;53.70;;;;;;5072853;28;20049;-62
2023/06/06 10:35:38;;;;;;;3.47;1.88;;;22.60;53.60;;;;;;5073837;28;20128;-62
2023/06/06 10:38:08;;;;;;;3.92;2.10;;;22.60;53.60;;;;;;5055948;28;20116;-62
2023/06/06 10:40:50;;;;;;;3.92;1.90;;;22.60;53.70;;;;;;5073735;28;20036;-62
2023/06/06 10:43:19;;;;;;;3.20;1.95;;;22.60;53.70;;;;;;5073250;28;20044;-62
2023/06/06 10:45:45;;;;;;;4.13;1.95;;;22.60;53.70;;;;;;5072656;28;20573;-62
2023/06/06 10:48:12;;;;;;;3.35;2.00;;;22.60;53.60;;;;;;5073253;28;20051;-62
2023/06/06 10:50:50;;;;;;;3.83;1.90;;;22.60;53.70;;;;;;5073374;28;20110;-62
2023/06/06 10:53:16;;;;;;;4.38;1.90;;;22.70;53.70;;;;;;5071642;28;20072;-62
2023/06/06 10:55:45;;;;;;;3.20;1.73;;;22.60;53.70;;;;;;5073364;28;20095;-62
2023/06/06 10:58:19;;;;;;;4.63;2.08;;;22.70;53.70;;;;;;5073299;28;20048;-62
2023/06/06 11:00:49;;;;;;;3.05;1.60;;;22.70;53.70;;;;;;5072809;28;20044;-62
2023/06/06 11:03:31;;;;;;;4.20;1.75;;;22.70;53.70;;;;;;5073066;28;20051;-62
2023/06/06 11:06:16;;;;;;;3.33;1.70;;;22.70;53.80;;;;;;5073327;28;20037;-62
2023/06/06 11:08:57;;;;;;;3.25;1.55;;;22.70;53.70;;;;;;5072973;28;20041;-62
2023/06/06 11:11:32;;;;;;;3.88;1.92;;;22.70;53.80;;;;;;5072791;28;20395;-62
2023/06/06 11:14:02;;;;;;;3.70;1.75;;;22.70;53.80;;;;;;5072565;28;20044;-62
2023/06/06 11:16:51;;;;;;;3.63;1.75;;;22.70;53.80;;;;;;5072748;28;20037;-62
2023/06/06 11:19:19;;;;;;;3.17;1.67;;;22.70;53.80;;;;;;5072926;28;20040;-62
2023/06/06 11:21:45;;;;;;;4.30;2.22;;;22.70;53.80;;;;;;5072508;28;20048;-62
2023/06/06 11:24:11;;;;;;;2.85;1.83;;;22.70;53.80;;;;;;5071500;28;20082;-62
2023/06/06 11:26:38;;;;;;;2.97;1.95;;;22.70;53.80;;;;;;5072023;28;20056;-62
2023/06/06 11:29:04;;;;;;;3.42;1.90;;;22.70;53.80;;;;;;5072203;28;20040;-62
2023/06/06 11:31:30;;;;;;;3.55;1.80;;;22.70;53.80;;;;;;5072498;28;20076;-62
2023/06/06 11:34:06;;;;;;;4.07;1.75;;;22.70;53.80;;;;;;5071655;28;20036;-62
2023/06/06 11:36:36;;;;;;;2.78;1.90;;;22.70;53.80;;;;;;5072082;28;20531;-62
2023/06/06 11:39:07;;;;;;;3.08;1.80;;;22.80;53.90;;;;;;5072891;28;20040;-62
2023/06/06 11:41:45;;;;;;;4.60;1.95;;;22.80;53.90;;;;;;5072093;28;20036;-62
2023/06/06 11:44:11;;;;;;;4.05;1.95;;;22.80;53.90;;;;;;5072637;28;20044;-62
2023/06/06 11:46:49;;;;;;;3.08;1.80;;;22.80;53.90;;;;;;5073147;28;20043;-62
2023/06/06 11:49:15;;;;;;;;;;;22.80;53.90;;;;;;5071844;28;20171;-62
2023/06/06 11:51:42;;;;;;;3.33;1.80;;;22.80;53.90;;;;;;5072810;28;20387;-62
2023/06/06 11:54:12;;;;;;;3.60;1.70;;;22.80;53.90;;;;;;5072185;28;20049;-62
2023/06/06 11:56:38;;;;;;;4.05;1.98;;;22.80;53.90;;;;;;5071930;28;20045;-62
2023/06/06 11:59:03;;;;;;;5.25;2.00;;;22.80;53.90;;;;;;5071567;28;20044;-62
2023/06/06 12:01:29;;;;;;;3.13;1.67;;;22.80;53.90;;;;;;5072473;28;20136;-62
2023/06/06 12:03:54;;;;;;;4.00;2.00;;;22.80;53.90;;;;;;5071821;28;20080;-62
2023/06/06 12:06:22;;;;;;;3.75;1.83;;;22.80;53.90;;;;;;5072266;28;20052;-62
2023/06/06 12:08:48;;;;;;;4.53;2.25;;;22.80;53.90;;;;;;5072554;28;20064;-62
2023/06/06 12:11:49;;;;;;;4.50;2.33;;;22.80;53.90;;;;;;5071420;28;20037;-62
2023/06/06 12:14:15;;;;;;;3.15;1.70;;;22.80;53.90;;;;;;5065230;28;20491;-62
2023/06/06 12:16:40;;;;;;;2.80;1.70;;;22.80;53.90;;;;;;5071670;28;20090;-62
2023/06/06 12:19:15;;;;;;;3.78;2.47;;;22.80;54.00;;;;;;5072099;28;20040;-62
2023/06/06 12:21:44;;;;;;;3.25;1.80;;;22.80;53.90;;;;;;5072653;28;20090;-62
2023/06/06 12:24:20;;;;;;;2.85;1.88;;;22.80;53.90;;;;;;5071187;28;20380;-62
2023/06/06 12:26:51;;;;;;;4.35;1.77;;;22.90;54.00;;;;;;5072410;28;20506;-62
2023/06/06 12:29:18;;;;;;;3.63;1.83;;;22.80;53.90;;;;;;5071838;28;20480;-62
2023/06/06 12:31:45;;;;;;;2.75;1.77;;;22.80;53.90;;;;;;5071362;28;20131;-62
2023/06/06 12:34:13;;;;;;;4.43;2.10;;;22.80;54.00;;;;;;5071821;28;20098;-62
2023/06/06 12:36:38;;;;;;;5.27;1.80;;;22.80;54.00;;;;;;5072494;28;20068;-63
2023/06/06 12:39:04;;;;;;;3.80;1.80;;;22.90;54.00;;;;;;5072965;28;20139;-62
2023/06/06 12:41:39;;;;;;;4.55;2.00;;;22.90;54.00;;;;;;5074400;28;20041;-62
2023/06/06 12:44:11;;;;;;;4.10;1.92;;;22.90;54.00;;;;;;5076135;28;20076;-62
2023/06/06 12:46:37;;;;;;;3.33;1.73;;;22.90;54.00;;;;;;5075381;28;20079;-62
2023/06/06 12:49:02;;;;;;;4.82;2.10;;;22.90;54.00;;;;;;5075776;28;20049;-62